createdAt,value
2019-06-10T00:00:16.383Z,2.47
2019-06-10T00:03:27.546Z,2.67
2019-06-10T00:06:03.694Z,2.27
2019-06-10T00:08:34.101Z,2.63
2019-06-10T00:11:07.823Z,2.43
2019-06-10T00:13:38.447Z,2.67
2019-06-10T00:16:11.289Z,2.40
2019-06-10T00:18:43.092Z,2.90
2019-06-10T00:21:12.890Z,2.40
2019-06-10T00:23:43.367Z,2.70
2019-06-10T00:26:13.836Z,2.53
2019-06-10T00:28:44.212Z,2.23
2019-06-10T00:31:14.577Z,2.53
2019-06-10T00:33:44.934Z,2.90
2019-06-10T00:36:16.164Z,2.63
2019-06-10T00:38:46.545Z,2.30
2019-06-10T00:41:16.913Z,2.17
2019-06-10T00:43:47.358Z,2.30
2019-06-10T00:46:17.777Z,2.97
2019-06-10T00:48:48.229Z,2.80
2019-06-10T00:51:20.787Z,2.60
2019-06-10T00:53:51.405Z,2.33
2019-06-10T00:56:22.100Z,2.90
2019-06-10T00:58:52.543Z,2.50
2019-06-10T01:01:23.022Z,2.47
2019-06-10T01:03:55.877Z,2.43
2019-06-10T01:06:26.394Z,2.30
2019-06-10T01:08:57.334Z,2.90
2019-06-10T01:11:27.743Z,2.93
2019-06-10T01:13:58.088Z,2.30
2019-06-10T01:16:28.623Z,2.27
2019-06-10T01:19:01.289Z,2.30
2019-06-10T01:21:31.398Z,2.67
2019-06-10T01:24:02.104Z,2.20
2019-06-10T01:26:35.394Z,2.03
2019-06-10T01:29:05.744Z,2.40
2019-06-10T01:31:36.258Z,2.23
2019-06-10T01:34:07.391Z,2.50
2019-06-10T01:36:37.862Z,2.50
2019-06-10T01:39:09.489Z,2.27
2019-06-10T01:41:40.951Z,2.20
2019-06-10T01:44:13.961Z,2.10
2019-06-10T01:46:43.558Z,2.47
2019-06-10T01:49:15.137Z,2.30
2019-06-10T01:51:45.963Z,2.43
2019-06-10T01:54:17.108Z,2.50
2019-06-10T01:56:50.840Z,2.83
2019-06-10T01:59:21.998Z,2.40
2019-06-10T02:02:01.067Z,2.13
2019-06-10T02:04:32.180Z,2.90
2019-06-10T02:07:03.712Z,1.93
2019-06-10T02:09:34.117Z,2.40
2019-06-10T02:12:04.730Z,2.63
2019-06-10T02:14:35.245Z,2.73
2019-06-10T02:17:05.779Z,2.57
2019-06-10T02:19:36.153Z,2.47
2019-06-10T02:22:06.524Z,2.60
2019-06-10T02:24:36.872Z,2.80
2019-06-10T02:27:07.285Z,2.80
2019-06-10T02:29:37.599Z,2.57
2019-06-10T02:32:08.229Z,5.23
2019-06-10T02:34:47.730Z,4.30
2019-06-10T02:37:13.623Z,2.97
2019-06-10T02:39:43.973Z,2.70
2019-06-10T02:42:30.381Z,2.77
2019-06-10T02:44:59.166Z,3.10
2019-06-10T02:47:36.173Z,2.70
2019-06-10T02:50:04.467Z,2.83
2019-06-10T02:52:38.244Z,2.53
2019-06-10T02:55:06.374Z,2.80
2019-06-10T02:57:40.367Z,2.70
2019-06-10T03:00:19.920Z,3.00
2019-06-10T03:02:45.942Z,2.70
2019-06-10T03:05:17.604Z,2.83
2019-06-10T03:07:48.350Z,2.83
2019-06-10T03:10:21.100Z,2.53
2019-06-10T03:12:52.797Z,2.80
2019-06-10T03:15:26.442Z,3.37
2019-06-10T03:17:55.334Z,3.70
2019-06-10T03:20:26.031Z,2.73
2019-06-10T03:22:56.506Z,2.90
2019-06-10T03:25:27.748Z,3.00
2019-06-10T03:27:58.208Z,3.07
2019-06-10T03:30:41.233Z,2.60
2019-06-10T03:33:04.651Z,3.47
2019-06-10T03:35:33.073Z,2.67
2019-06-10T03:38:04.595Z,3.00
2019-06-10T03:40:36.034Z,3.03
2019-06-10T03:43:06.512Z,3.30
2019-06-10T03:45:36.929Z,2.73
2019-06-10T03:48:07.360Z,3.10
2019-06-10T03:50:37.732Z,2.43
2019-06-10T03:53:08.224Z,2.67
2019-06-10T03:55:38.604Z,5.60
2019-06-10T03:58:08.938Z,3.80
2019-06-10T04:00:42.835Z,2.60
2019-06-10T04:03:12.423Z,2.47
2019-06-10T04:05:43.890Z,2.43
2019-06-10T04:08:14.431Z,2.50
2019-06-10T04:10:45.256Z,2.50
2019-06-10T04:13:15.784Z,2.83
2019-06-10T04:15:46.144Z,2.40
2019-06-10T04:18:17.775Z,2.17
2019-06-10T04:20:49.394Z,2.27
2019-06-10T04:23:19.868Z,2.30
2019-06-10T04:25:52.542Z,2.57
2019-06-10T04:28:24.139Z,2.80
2019-06-10T04:30:54.436Z,2.60
2019-06-10T04:33:26.181Z,2.63
2019-06-10T04:35:57.043Z,2.37
2019-06-10T04:38:29.104Z,2.60
2019-06-10T04:41:00.188Z,2.20
2019-06-10T04:43:32.658Z,2.10
2019-06-10T04:46:02.736Z,2.13
2019-06-10T04:48:37.269Z,2.40
2019-06-10T04:51:07.828Z,2.40
2019-06-10T04:53:40.321Z,2.17
2019-06-10T04:56:12.272Z,2.30
2019-06-10T04:58:43.279Z,2.10
2019-06-10T05:01:13.860Z,2.30
2019-06-10T05:03:44.264Z,2.00
2019-06-10T05:06:14.641Z,2.10
2019-06-10T05:08:48.460Z,1.93
2019-06-10T05:11:28.575Z,1.97
2019-06-10T05:13:59.546Z,2.10
2019-06-10T05:16:32.187Z,2.13
2019-06-10T05:19:27.512Z,2.10
2019-06-10T05:21:58.203Z,2.80
2019-06-10T05:24:30.119Z,5.10
2019-06-10T05:27:02.102Z,4.10
2019-06-10T05:29:34.143Z,4.00
2019-06-10T05:32:04.700Z,2.60
2019-06-10T05:34:35.211Z,2.23
2019-06-10T05:37:05.630Z,2.23
2019-06-10T05:39:36.144Z,2.10
2019-06-10T05:42:08.352Z,1.67
2019-06-10T05:44:39.103Z,1.70
2019-06-10T05:47:09.629Z,1.43
2019-06-10T05:49:40.044Z,1.67
2019-06-10T05:52:12.598Z,2.53
2019-06-10T05:54:43.136Z,2.30
2019-06-10T05:57:13.848Z,2.20
2019-06-10T05:59:44.366Z,1.93
2019-06-10T06:02:19.344Z,2.30
2019-06-10T06:05:38.043Z,2.23
2019-06-10T06:08:04.948Z,1.70
2019-06-10T06:10:35.500Z,2.43
2019-06-10T06:13:42.969Z,1.80
2019-06-10T06:17:02.421Z,1.60
2019-06-10T06:20:02.782Z,1.50
2019-06-10T06:22:52.219Z,1.50
2019-06-10T06:25:28.193Z,1.60
2019-06-10T06:28:19.909Z,2.23
2019-06-10T06:31:03.131Z,1.47
2019-06-10T06:33:46.322Z,2.10
2019-06-10T06:36:26.584Z,1.50
2019-06-10T06:39:05.812Z,1.40
2019-06-10T06:41:42.782Z,1.77
2019-06-10T06:44:23.469Z,1.70
2019-06-10T06:47:06.786Z,1.50
2019-06-10T06:50:57.312Z,1.30
2019-06-10T06:53:38.596Z,1.53
2019-06-10T06:56:22.973Z,1.20
2019-06-10T06:59:04.484Z,1.60
2019-06-10T07:05:43.323Z,1.70
2019-06-10T07:08:51.778Z,1.60
2019-06-10T07:11:54.825Z,2.17
2019-06-10T07:15:00.715Z,1.57
2019-06-10T07:17:57.178Z,1.90
2019-06-10T07:24:56.706Z,1.80
2019-06-10T07:25:47.616Z,1.80
2019-06-10T07:27:29.870Z,1.67
2019-06-10T07:30:04.680Z,2.00
2019-06-10T07:32:35.865Z,1.80
2019-06-10T07:35:05.475Z,2.00
2019-06-10T07:37:37.867Z,1.90
2019-06-10T07:40:09.014Z,2.17
2019-06-10T07:42:39.413Z,1.90
2019-06-10T07:45:09.996Z,1.60
2019-06-10T07:47:45.207Z,2.17
2019-06-10T07:50:15.350Z,1.80
2019-06-10T07:52:46.835Z,1.57
2019-06-10T07:55:18.156Z,1.20
2019-06-10T07:57:48.575Z,2.03
2019-06-10T08:00:22.822Z,1.47
2019-06-10T08:02:53.305Z,1.40
2019-06-10T08:05:26.208Z,1.60
2019-06-10T08:07:56.731Z,1.53
2019-06-10T08:10:28.826Z,1.70
2019-06-10T08:12:59.186Z,1.50
2019-06-10T08:15:32.361Z,1.40
2019-06-10T08:18:06.041Z,1.80
2019-06-10T08:20:45.693Z,1.43
2019-06-10T08:23:18.053Z,1.40
2019-06-10T08:25:54.545Z,1.20
2019-06-10T08:28:22.916Z,1.60
2019-06-10T08:30:54.111Z,1.40
2019-06-10T08:33:24.495Z,2.00
2019-06-10T08:35:59.914Z,1.60
2019-06-10T08:38:27.109Z,1.70
2019-06-10T08:40:57.535Z,1.90
2019-06-10T08:43:27.916Z,3.00
2019-06-10T08:45:58.426Z,1.53
2019-06-10T08:48:29.368Z,1.80
2019-06-10T08:50:59.831Z,1.60
2019-06-10T08:53:32.741Z,1.70
2019-06-10T08:56:03.236Z,1.50
2019-06-10T08:58:33.904Z,1.40
2019-06-10T09:01:07.094Z,1.50
2019-06-10T09:03:44.689Z,1.80
2019-06-10T09:06:13.476Z,1.80
2019-06-10T09:08:48.031Z,1.53
2019-06-10T09:11:16.472Z,1.80
2019-06-10T09:13:49.207Z,2.47
2019-06-10T09:16:19.609Z,3.50
2019-06-10T09:18:52.060Z,4.10
2019-06-10T09:21:22.503Z,1.40
2019-06-10T09:23:59.871Z,1.50
2019-06-10T09:26:25.186Z,1.80
2019-06-10T09:28:56.542Z,1.60
2019-06-10T09:31:27.296Z,2.03
2019-06-10T09:33:57.815Z,2.33
2019-06-10T09:36:28.274Z,3.27
2019-06-10T09:38:58.779Z,3.43
2019-06-10T09:41:39.458Z,2.97
2019-06-10T09:44:03.267Z,2.80
2019-06-10T09:46:35.494Z,3.20
2019-06-10T09:49:06.421Z,2.60
2019-06-10T09:51:37.282Z,1.80
2019-06-10T09:54:08.915Z,1.77
2019-06-10T09:56:42.785Z,1.40
2019-06-10T09:59:15.281Z,1.40
2019-06-10T10:01:49.059Z,1.57
2019-06-10T10:04:18.242Z,1.30
2019-06-10T10:06:51.671Z,1.53
2019-06-10T10:09:23.181Z,1.57
2019-06-10T10:11:55.924Z,1.10
2019-06-10T10:14:25.280Z,1.60
2019-06-10T10:17:00.272Z,1.40
2019-06-10T10:19:28.035Z,1.00
2019-06-10T10:21:58.763Z,1.50
2019-06-10T10:24:29.450Z,9.70
2019-06-10T10:27:02.634Z,2.60
2019-06-10T10:29:32.976Z,1.90
2019-06-10T10:32:03.825Z,1.40
2019-06-10T10:34:34.155Z,1.23
2019-06-10T10:37:04.612Z,1.57
2019-06-10T10:39:35.030Z,1.20
2019-06-10T10:42:05.674Z,1.30
2019-06-10T10:44:36.125Z,1.40
2019-06-10T10:47:12.365Z,1.23
2019-06-10T10:49:44.942Z,1.60
2019-06-10T10:52:15.571Z,1.30
2019-06-10T10:54:46.763Z,1.37
2019-06-10T10:57:18.971Z,1.20
2019-06-10T10:59:49.561Z,1.20
2019-06-10T11:02:19.942Z,1.70
2019-06-10T11:04:53.337Z,1.10
2019-06-10T11:07:22.451Z,1.57
2019-06-10T11:09:55.127Z,1.30
2019-06-10T11:12:25.375Z,1.37
2019-06-10T11:15:17.500Z,1.30
2019-06-10T11:17:47.875Z,1.63
2019-06-10T11:20:18.191Z,1.33
2019-06-10T11:22:49.603Z,1.43
2019-06-10T11:25:20.147Z,1.60
2019-06-10T11:27:52.630Z,1.37
2019-06-10T11:30:22.670Z,1.60
2019-06-10T11:32:55.896Z,1.30
2019-06-10T11:35:26.519Z,1.30
2019-06-10T11:37:58.142Z,1.53
2019-06-10T11:40:28.621Z,1.80
2019-06-10T11:42:59.802Z,2.20
2019-06-10T11:45:32.699Z,2.00
2019-06-10T11:48:02.515Z,2.40
2019-06-10T11:50:33.513Z,2.00
2019-06-10T11:53:04.366Z,2.00
2019-06-10T11:55:34.852Z,2.20
2019-06-10T11:58:06.710Z,2.20
2019-06-10T12:00:37.490Z,2.20
2019-06-10T12:03:07.857Z,3.00
2019-06-10T12:05:38.224Z,2.80
2019-06-10T12:08:08.688Z,2.57
2019-06-10T12:10:39.080Z,2.77
2019-06-10T12:13:09.445Z,3.07
2019-06-10T12:16:13.981Z,2.97
2019-06-10T12:18:13.165Z,2.93
2019-06-10T12:20:43.854Z,2.87
2019-06-10T12:23:14.251Z,2.90
2019-06-10T12:25:47.774Z,2.90
2019-06-10T12:28:16.724Z,3.07
2019-06-10T12:30:47.171Z,2.77
2019-06-10T12:33:21.251Z,2.70
2019-06-10T12:35:51.093Z,2.97
2019-06-10T12:38:22.779Z,3.10
2019-06-10T12:40:56.829Z,2.60
2019-06-10T12:43:26.046Z,2.80
2019-06-10T12:45:57.843Z,2.60
2019-06-10T12:48:28.662Z,2.90
2019-06-10T12:51:00.584Z,2.80
2019-06-10T12:53:32.542Z,3.13
2019-06-10T12:56:10.398Z,3.20
2019-06-10T12:58:35.447Z,2.57
2019-06-10T13:01:06.335Z,2.90
2019-06-10T13:03:38.030Z,2.73
2019-06-10T13:06:09.852Z,3.33
2019-06-10T13:08:42.922Z,3.87
2019-06-10T13:11:13.655Z,3.27
2019-06-10T13:13:45.458Z,2.80
2019-06-10T13:16:15.866Z,3.30
2019-06-10T13:18:46.305Z,3.00
2019-06-10T13:27:33.281Z,2.60
2019-06-10T13:30:04.250Z,1.87
2019-06-10T13:32:34.831Z,1.57
2019-06-10T13:35:06.379Z,1.67
2019-06-10T13:37:37.831Z,1.50
2019-06-10T13:40:12.328Z,1.90
2019-06-10T13:42:42.341Z,1.70
2019-06-10T13:45:14.457Z,1.80
2019-06-10T13:47:45.107Z,1.73
2019-06-10T13:50:19.321Z,1.80
2019-06-10T13:53:02.838Z,1.80
2019-06-10T14:01:48.810Z,2.10
2019-06-10T14:04:24.843Z,2.37
2019-06-10T14:06:56.786Z,1.50
2019-06-10T14:09:26.112Z,2.00
2019-06-10T14:11:56.590Z,1.70
2019-06-10T14:14:26.991Z,1.80
2019-06-10T14:16:57.395Z,1.87
2019-06-10T14:19:29.890Z,2.10
2019-06-10T14:22:02.457Z,1.80
2019-06-10T14:24:34.722Z,1.93
2019-06-10T14:27:09.177Z,1.80
2019-06-10T14:29:41.956Z,1.53
2019-06-10T14:32:13.954Z,1.90
2019-06-10T14:34:44.661Z,1.90
2019-06-10T14:37:15.694Z,1.87
2019-06-10T14:51:12.406Z,1.63
2019-06-10T14:53:42.667Z,1.30
2019-06-10T14:56:17.219Z,1.80
2019-06-10T14:58:46.720Z,1.80
2019-06-10T15:01:22.035Z,1.77
2019-06-10T15:03:52.312Z,2.30
2019-06-10T15:06:22.768Z,1.87
2019-06-10T15:08:53.401Z,2.30
2019-06-10T15:11:27.596Z,2.13
2019-06-10T15:13:56.955Z,2.10
2019-06-10T15:16:27.206Z,2.50
2019-06-10T15:19:10.943Z,2.37
2019-06-10T15:21:32.456Z,1.93
2019-06-10T15:24:03.846Z,1.70
2019-06-10T15:26:34.202Z,2.03
2019-06-10T15:29:04.608Z,2.30
2019-06-10T15:31:34.932Z,2.40
2019-06-10T15:34:05.618Z,2.20
2019-06-10T15:36:36.076Z,1.90
2019-06-10T15:39:08.980Z,1.93
2019-06-10T15:41:39.543Z,2.77
2019-06-10T15:44:09.950Z,1.50
2019-06-10T15:46:43.029Z,2.43
2019-06-10T15:49:16.360Z,1.63
2019-06-10T15:51:45.857Z,1.50
2019-06-10T15:54:20.177Z,1.10
2019-06-10T15:56:55.755Z,1.30
2019-06-10T15:59:22.001Z,1.23
2019-06-10T16:01:53.064Z,1.30
2019-06-10T16:04:25.759Z,1.30
2019-06-10T16:06:56.359Z,1.10
2019-06-10T16:09:26.796Z,1.33
2019-06-10T16:11:57.222Z,1.03
2019-06-10T16:14:27.706Z,1.40
2019-06-10T16:16:58.211Z,1.20
2019-06-10T16:19:29.632Z,1.47
2019-06-10T16:22:03.183Z,1.43
2019-06-10T16:27:43.393Z,1.33
2019-06-10T16:30:02.844Z,1.40
2019-06-10T16:32:33.025Z,1.50
2019-06-10T16:35:04.064Z,1.37
2019-06-10T16:37:34.698Z,1.80
2019-06-10T16:40:05.991Z,1.60
2019-06-10T16:42:36.413Z,1.73
2019-06-10T16:45:07.630Z,1.70
2019-06-10T16:47:38.147Z,1.47
2019-06-10T16:50:08.953Z,2.00
2019-06-10T16:52:39.397Z,1.93
2019-06-10T16:55:12.589Z,1.83
2019-06-10T16:57:42.291Z,1.23
2019-06-10T17:00:14.703Z,1.13
2019-06-10T17:02:45.017Z,1.30
2019-06-10T17:05:20.539Z,1.40
2019-06-10T17:07:52.667Z,1.70
2019-06-10T17:10:24.352Z,1.40
2019-06-10T17:13:03.153Z,1.33
2019-06-10T17:15:34.092Z,1.10
2019-06-10T17:18:04.639Z,1.40
2019-06-10T17:20:35.350Z,1.37
2019-06-10T17:23:30.857Z,1.60
2019-06-10T17:25:58.482Z,1.27
2019-06-10T17:28:35.564Z,1.37
2019-06-10T17:31:03.471Z,1.27
2019-06-10T17:33:35.832Z,1.50
2019-06-10T17:36:06.070Z,1.30
2019-06-10T17:38:36.532Z,1.70
2019-06-10T17:41:06.927Z,1.80
2019-06-10T17:43:37.490Z,2.10
2019-06-10T17:46:07.887Z,1.80
2019-06-10T17:48:38.261Z,1.37
2019-06-10T17:51:09.014Z,1.27
2019-06-10T17:53:39.450Z,1.50
2019-06-10T17:56:09.851Z,1.73
2019-06-10T17:58:53.421Z,2.20
2019-06-10T18:01:12.934Z,2.70
2019-06-10T18:03:44.107Z,2.13
2019-06-10T18:06:14.638Z,2.33
2019-06-10T18:08:45.078Z,1.20
2019-06-10T18:11:16.563Z,1.23
2019-06-10T18:13:47.121Z,1.20
2019-06-10T18:16:17.477Z,1.10
2019-06-10T18:18:47.809Z,2.23
2019-06-10T18:21:18.457Z,1.10
2019-06-10T18:23:48.845Z,1.47
2019-06-10T18:26:19.074Z,1.60
2019-06-10T18:29:08.150Z,3.90
2019-06-10T18:31:23.583Z,2.80
2019-06-10T18:33:54.987Z,1.20
2019-06-10T18:36:27.982Z,1.60
2019-06-10T18:38:59.612Z,1.70
2019-06-10T18:41:31.846Z,1.73
2019-06-10T18:44:18.490Z,1.40
2019-06-10T18:46:37.768Z,1.50
2019-06-10T18:49:09.528Z,1.60
2019-06-10T18:51:43.385Z,1.70
2019-06-10T18:54:16.310Z,1.80
2019-06-10T18:56:48.262Z,2.03
2019-06-10T18:59:21.278Z,1.33
2019-06-10T19:01:52.833Z,1.40
2019-06-10T19:04:24.795Z,1.50
2019-06-10T19:06:58.336Z,1.80
2019-06-10T19:09:34.497Z,1.40
2019-06-10T19:12:03.346Z,1.30
2019-06-10T19:14:35.546Z,1.50
2019-06-10T19:17:07.198Z,1.50
2019-06-10T19:19:38.230Z,1.23
2019-06-10T19:22:09.643Z,1.30
2019-06-10T19:24:41.992Z,1.60
2019-06-10T19:27:12.423Z,1.80
2019-06-10T19:29:50.597Z,1.70
2019-06-10T19:32:16.101Z,1.67
2019-06-10T19:34:48.482Z,2.00
2019-06-10T19:37:27.338Z,1.93
2019-06-10T19:39:57.845Z,1.70
2019-06-10T19:42:28.085Z,1.40
2019-06-10T19:44:58.258Z,1.63
2019-06-10T19:47:28.468Z,1.43
2019-06-10T19:49:58.818Z,2.00
2019-06-10T19:52:29.393Z,1.53
2019-06-10T19:54:59.634Z,1.80
2019-06-10T19:57:32.352Z,1.50
2019-06-10T20:00:10.488Z,1.60
2019-06-10T20:02:35.795Z,1.40
2019-06-10T20:05:06.999Z,1.20
2019-06-10T20:07:38.880Z,2.10
2019-06-10T20:10:09.448Z,1.50
2019-06-10T20:12:41.043Z,1.93
2019-06-10T20:15:22.593Z,1.80
2019-06-10T20:17:52.713Z,1.63
2019-06-10T20:20:22.998Z,1.80
2019-06-10T20:22:57.389Z,1.70
2019-06-10T20:25:26.283Z,1.80
2019-06-10T20:27:56.593Z,1.70
2019-06-10T20:30:29.132Z,1.60
2019-06-10T20:33:03.079Z,1.60
2019-06-10T20:35:32.844Z,1.53
2019-06-10T20:38:05.009Z,1.63
2019-06-10T20:40:35.689Z,2.10
2019-06-10T20:43:06.073Z,2.00
2019-06-10T20:45:37.618Z,2.03
2019-06-10T20:48:08.028Z,1.90
2019-06-10T20:50:39.085Z,2.27
2019-06-10T20:53:15.407Z,1.67
2019-06-10T20:55:49.464Z,1.80
2019-06-10T20:58:14.733Z,2.70
2019-06-10T21:00:51.509Z,2.30
2019-06-10T21:03:18.691Z,2.40
2019-06-10T21:05:53.274Z,1.90
2019-06-10T21:11:07.195Z,1.90
2019-06-10T21:13:37.658Z,1.93
2019-06-10T21:16:08.095Z,2.23
2019-06-10T21:18:38.486Z,2.57
2019-06-10T21:21:08.911Z,2.20
2019-06-10T21:23:40.524Z,1.70
2019-06-10T21:26:12.970Z,2.13
2019-06-10T21:28:46.066Z,2.00
2019-06-10T21:31:15.793Z,1.83
2019-06-10T21:33:49.043Z,1.70
2019-06-10T21:36:18.639Z,2.23
2019-06-10T21:38:49.737Z,1.93
2019-06-10T21:41:22.716Z,2.07
2019-06-10T21:43:59.131Z,2.10
2019-06-10T21:46:25.495Z,2.00
2019-06-10T21:48:56.164Z,2.07
2019-06-10T21:51:27.788Z,1.67
2019-06-10T21:53:58.118Z,2.00
2019-06-10T21:56:32.234Z,1.33
2019-06-10T21:59:06.037Z,1.20
2019-06-10T22:01:36.614Z,1.33
2019-06-10T22:04:07.773Z,1.07
2019-06-10T22:06:42.607Z,1.10
2019-06-10T22:09:14.451Z,1.20
2019-06-10T22:11:45.842Z,1.43
2019-06-10T22:14:16.511Z,1.23
2019-06-10T22:16:48.256Z,1.00
2019-06-10T22:19:18.774Z,1.20
2019-06-10T22:21:49.252Z,1.20
2019-06-10T22:24:19.739Z,1.20
2019-06-10T22:26:51.016Z,1.20
2019-06-10T22:29:23.092Z,1.30
2019-06-10T22:31:55.252Z,1.23
2019-06-10T22:34:25.838Z,1.40
2019-06-10T22:36:57.719Z,1.50
2019-06-10T22:39:28.196Z,1.20
2019-06-10T22:41:59.681Z,1.37
2019-06-10T22:44:30.157Z,1.30
2019-06-10T22:47:02.793Z,1.50
2019-06-10T22:49:32.918Z,2.93
2019-06-10T22:52:03.369Z,3.47
2019-06-10T22:54:33.813Z,1.57
2019-06-10T22:57:04.308Z,1.30
2019-06-10T22:59:34.817Z,1.00
2019-06-10T23:02:05.228Z,1.10
2019-06-10T23:04:35.586Z,1.20
2019-06-10T23:07:05.978Z,1.53
2019-06-10T23:09:36.414Z,1.50
2019-06-10T23:12:06.862Z,1.40
2019-06-10T23:14:37.238Z,1.33
2019-06-10T23:17:07.658Z,1.47
2019-06-10T23:19:38.049Z,1.57
2019-06-10T23:22:08.603Z,1.80
2019-06-10T23:24:39.043Z,1.43
2019-06-10T23:27:09.477Z,1.37
2019-06-10T23:29:39.853Z,1.50
2019-06-10T23:32:12.810Z,1.10
2019-06-10T23:34:42.437Z,0.97
2019-06-10T23:37:12.918Z,1.07
2019-06-10T23:39:43.283Z,1.10
2019-06-10T23:42:13.623Z,1.07
2019-06-10T23:44:44.097Z,1.00
2019-06-10T23:47:14.676Z,1.20
2019-06-10T23:49:45.067Z,1.03
2019-06-10T23:52:15.523Z,1.10
2019-06-10T23:54:45.907Z,1.40
2019-06-10T23:57:16.351Z,1.10
2019-06-10T23:59:46.854Z,1.43
